Datum - Zeit
Döttingen
TemperaturTaupunktFeuchteSolar Wind aus
Richtung
Windböenaus
Richtung
Luftdruck
(QFF)
RegenRegen
Stärke
08.08.2022 - 00.00Uhr17.4 °C15.0 °C86 %0.0 W/m²0.5 km/hSüdosten1.8 km/hSüdosten1018.4 hPa0.0 mm0.0 mm/h
08.08.2022 - 00.05Uhr17.4 °C15.0 °C86 %0.0 W/m²0.3 km/hSüdosten1.8 km/hSüdosten1018.5 hPa0.0 mm0.0 mm/h
08.08.2022 - 00.10Uhr17.3 °C14.9 °C86 %0.0 W/m²0.0 km/hSüdosten0.0 km/hNorden1018.5 hPa0.0 mm0.0 mm/h
08.08.2022 - 00.15Uhr17.4 °C15.0 °C86 %0.0 W/m²0.0 km/hSüdosten0.0 km/hNorden1018.5 hPa0.0 mm0.0 mm/h
08.08.2022 - 00.20Uhr17.4 °C14.9 °C86 %0.0 W/m²0.0 km/hSüdosten0.0 km/hNorden1018.6 hPa0.0 mm0.0 mm/h
08.08.2022 - 00.25Uhr17.3 °C14.8 °C86 %0.0 W/m²0.0 km/hSüdosten0.0 km/hNorden1018.6 hPa0.0 mm0.0 mm/h
08.08.2022 - 00.30Uhr17.1 °C14.7 °C86 %0.0 W/m²2.3 km/hSüdosten4.0 km/hSüdosten1018.6 hPa0.0 mm0.0 mm/h
08.08.2022 - 00.35Uhr16.9 °C14.5 °C86 %0.0 W/m²1.4 km/hSüdosten4.0 km/hSüdosten1018.6 hPa0.0 mm0.0 mm/h
08.08.2022 - 00.40Uhr16.9 °C14.4 °C86 %0.0 W/m²2.0 km/hSüdosten4.0 km/hSüdosten1018.5 hPa0.0 mm0.0 mm/h
08.08.2022 - 00.45Uhr17.1 °C14.7 °C86 %0.0 W/m²2.3 km/hSüdosten4.0 km/hSüdosten1018.5 hPa0.0 mm0.0 mm/h
08.08.2022 - 00.50Uhr17.1 °C14.7 °C86 %0.0 W/m²0.0 km/hSüdosten0.0 km/hNorden1018.4 hPa0.0 mm0.0 mm/h
08.08.2022 - 00.55Uhr16.9 °C14.5 °C86 %0.0 W/m²0.7 km/hSüdosten1.8 km/hSüdosten1018.4 hPa0.0 mm0.0 mm/h
08.08.2022 - 01.00Uhr17.0 °C14.6 °C86 %0.0 W/m²0.0 km/hSüdosten0.0 km/hNorden1018.5 hPa0.0 mm0.0 mm/h
08.08.2022 - 01.05Uhr16.9 °C14.5 °C86 %0.0 W/m²0.0 km/hSüdosten0.0 km/hNorden1018.4 hPa0.0 mm0.0 mm/h
08.08.2022 - 01.10Uhr16.7 °C14.3 °C86 %0.0 W/m²0.4 km/hSüdosten1.8 km/hSüdosten1018.4 hPa0.0 mm0.0 mm/h
08.08.2022 - 01.15Uhr16.8 °C14.4 °C86 %0.0 W/m²0.5 km/hSüdosten1.8 km/hSüdosten1018.4 hPa0.0 mm0.0 mm/h
08.08.2022 - 01.20Uhr16.7 °C14.3 °C86 %0.0 W/m²0.0 km/hSüdosten0.0 km/hNorden1018.4 hPa0.0 mm0.0 mm/h
08.08.2022 - 01.25Uhr16.6 °C14.2 °C86 %0.0 W/m²0.0 km/hSüdosten0.0 km/hNorden1018.4 hPa0.0 mm0.0 mm/h
08.08.2022 - 01.30Uhr16.6 °C14.4 °C87 %0.0 W/m²2.0 km/hSüdosten4.0 km/hSüdosten1018.5 hPa0.0 mm0.0 mm/h
08.08.2022 - 01.35Uhr16.7 °C14.3 °C86 %0.0 W/m²0.0 km/hSüdosten0.0 km/hNorden1018.5 hPa0.0 mm0.0 mm/h
08.08.2022 - 01.40Uhr16.4 °C14.1 °C86 %0.0 W/m²3.7 km/hSüdosten8.3 km/hSüdosten1018.6 hPa0.0 mm0.0 mm/h
08.08.2022 - 01.45Uhr16.3 °C14.1 °C87 %0.0 W/m²1.5 km/hSüdosten4.0 km/hSüdosten1018.6 hPa0.0 mm0.0 mm/h
08.08.2022 - 01.50Uhr16.2 °C14.0 °C87 %0.0 W/m²0.0 km/hSüdosten0.0 km/hNorden1018.6 hPa0.0 mm0.0 mm/h
08.08.2022 - 01.55Uhr16.0 °C13.8 °C87 %0.0 W/m²0.0 km/hSüdosten0.0 km/hNorden1018.6 hPa0.0 mm0.0 mm/h
08.08.2022 - 02.00Uhr16.0 °C13.8 °C87 %0.0 W/m²0.0 km/hSüdosten0.0 km/hNorden1018.6 hPa0.0 mm0.0 mm/h
08.08.2022 - 02.05Uhr16.1 °C13.9 °C87 %0.0 W/m²0.0 km/hSüdosten0.0 km/hNorden1018.6 hPa0.0 mm0.0 mm/h
08.08.2022 - 02.10Uhr16.0 °C13.8 °C87 %0.0 W/m²0.0 km/hSüdosten0.0 km/hNorden1018.6 hPa0.0 mm0.0 mm/h
08.08.2022 - 02.15Uhr15.8 °C13.6 °C87 %0.0 W/m²0.0 km/hSüdosten0.0 km/hNorden1018.7 hPa0.0 mm0.0 mm/h
08.08.2022 - 02.20Uhr15.7 °C13.5 °C87 %0.0 W/m²1.0 km/hSüdosten4.0 km/hSüdosten1018.6 hPa0.0 mm0.0 mm/h
08.08.2022 - 02.25Uhr15.8 °C13.6 °C87 %0.0 W/m²1.2 km/hSüdosten4.0 km/hSüdosten1018.7 hPa0.0 mm0.0 mm/h
08.08.2022 - 02.30Uhr15.8 °C13.6 °C87 %0.0 W/m²1.9 km/hSüdosten4.0 km/hSüdosten1018.7 hPa0.0 mm0.0 mm/h
08.08.2022 - 02.35Uhr15.7 °C13.5 °C87 %0.0 W/m²0.0 km/hSüdosten0.0 km/hNorden1018.7 hPa0.0 mm0.0 mm/h
08.08.2022 - 02.40Uhr15.6 °C13.4 °C87 %0.0 W/m²0.0 km/hSüdosten0.0 km/hNorden1018.7 hPa0.0 mm0.0 mm/h
08.08.2022 - 02.45Uhr15.5 °C13.3 °C87 %0.0 W/m²0.0 km/hSüdosten0.0 km/hNorden1018.7 hPa0.0 mm0.0 mm/h
08.08.2022 - 02.50Uhr15.4 °C13.2 °C87 %0.0 W/m²0.0 km/hSüdosten0.0 km/hNorden1018.6 hPa0.0 mm0.0 mm/h
08.08.2022 - 02.55Uhr15.4 °C13.2 °C87 %0.0 W/m²0.5 km/hSüdosten1.8 km/hSüdosten1018.6 hPa0.0 mm0.0 mm/h
08.08.2022 - 03.00Uhr15.6 °C13.3 °C87 %0.0 W/m²1.0 km/hSüdosten4.0 km/hSüdosten1018.6 hPa0.0 mm0.0 mm/h
08.08.2022 - 03.05Uhr15.5 °C13.3 °C87 %0.0 W/m²0.8 km/hSüdosten1.8 km/hSüdosten1018.6 hPa0.0 mm0.0 mm/h
08.08.2022 - 03.10Uhr15.3 °C13.1 °C87 %0.0 W/m²1.2 km/hSüdosten4.0 km/hSüdosten1018.5 hPa0.0 mm0.0 mm/h
08.08.2022 - 03.15Uhr15.3 °C13.0 °C86 %0.0 W/m²1.8 km/hSüdosten4.0 km/hSüdosten1018.5 hPa0.0 mm0.0 mm/h
08.08.2022 - 03.20Uhr15.2 °C13.0 °C87 %0.0 W/m²2.3 km/hSüdosten4.0 km/hSüdosten1018.4 hPa0.0 mm0.0 mm/h
08.08.2022 - 03.25Uhr14.9 °C12.8 °C87 %0.0 W/m²1.7 km/hSüdosten4.0 km/hSüdosten1018.4 hPa0.0 mm0.0 mm/h
08.08.2022 - 03.30Uhr14.8 °C12.7 °C87 %0.0 W/m²2.0 km/hSüdosten4.0 km/hSüdosten1018.5 hPa0.0 mm0.0 mm/h
08.08.2022 - 03.35Uhr14.7 °C12.6 °C87 %0.0 W/m²1.9 km/hSüdosten4.0 km/hSüdosten1018.4 hPa0.0 mm0.0 mm/h
08.08.2022 - 03.40Uhr14.7 °C12.6 °C87 %0.0 W/m²0.6 km/hSüdosten1.8 km/hSüdosten1018.4 hPa0.0 mm0.0 mm/h
08.08.2022 - 03.45Uhr14.7 °C12.5 °C86 %0.0 W/m²0.0 km/hSüdosten0.0 km/hNorden1018.4 hPa0.0 mm0.0 mm/h
08.08.2022 - 03.50Uhr14.7 °C12.3 °C86 %0.0 W/m²0.3 km/hSüdosten1.8 km/hSüdosten1018.4 hPa0.0 mm0.0 mm/h
08.08.2022 - 03.55Uhr14.7 °C12.4 °C86 %0.0 W/m²0.0 km/hSüdosten0.0 km/hNorden1018.4 hPa0.0 mm0.0 mm/h
08.08.2022 - 04.00Uhr14.7 °C12.4 °C86 %0.0 W/m²0.0 km/hSüdosten0.0 km/hNorden1018.5 hPa0.0 mm0.0 mm/h
08.08.2022 - 04.05Uhr14.7 °C12.4 °C86 %0.0 W/m²0.0 km/hSüdosten0.0 km/hNorden1018.5 hPa0.0 mm0.0 mm/h
08.08.2022 - 04.10Uhr14.6 °C12.3 °C86 %0.0 W/m²0.0 km/hSüdosten0.0 km/hNorden1018.5 hPa0.0 mm0.0 mm/h
08.08.2022 - 04.15Uhr14.6 °C12.3 °C86 %0.0 W/m²0.0 km/hSüdosten0.0 km/hNorden1018.6 hPa0.0 mm0.0 mm/h
08.08.2022 - 04.20Uhr14.3 °C12.1 °C86 %0.0 W/m²0.0 km/hSüdosten0.0 km/hNorden1018.6 hPa0.0 mm0.0 mm/h
08.08.2022 - 04.25Uhr14.2 °C12.0 °C86 %0.0 W/m²0.0 km/hSüdosten0.0 km/hNorden1018.6 hPa0.0 mm0.0 mm/h
08.08.2022 - 04.30Uhr14.3 °C12.1 °C86 %0.0 W/m²0.0 km/hSüdosten0.0 km/hNorden1018.6 hPa0.0 mm0.0 mm/h
08.08.2022 - 04.35Uhr14.2 °C11.9 °C86 %0.0 W/m²0.0 km/hSüdosten0.0 km/hNorden1018.6 hPa0.0 mm0.0 mm/h
08.08.2022 - 04.40Uhr14.2 °C11.9 °C86 %0.0 W/m²0.0 km/hSüdosten0.0 km/hNorden1018.5 hPa0.0 mm0.0 mm/h
08.08.2022 - 04.45Uhr14.2 °C11.9 °C86 %0.0 W/m²0.0 km/hSüdosten0.0 km/hNorden1018.5 hPa0.0 mm0.0 mm/h
08.08.2022 - 04.50Uhr14.1 °C11.8 °C86 %0.0 W/m²0.0 km/hSüdosten0.0 km/hNorden1018.5 hPa0.0 mm0.0 mm/h
08.08.2022 - 04.55Uhr13.9 °C11.6 °C86 %0.0 W/m²1.6 km/hSüdosten4.0 km/hSüdosten1018.6 hPa0.0 mm0.0 mm/h
08.08.2022 - 05.00Uhr13.9 °C11.6 °C86 %0.0 W/m²1.2 km/hSüdosten4.0 km/hSüdosten1018.6 hPa0.0 mm0.0 mm/h
08.08.2022 - 05.05Uhr13.9 °C11.6 °C86 %0.0 W/m²0.5 km/hSüdosten1.8 km/hSüdosten1018.6 hPa0.0 mm0.0 mm/h
08.08.2022 - 05.10Uhr13.8 °C11.5 °C86 %0.0 W/m²0.2 km/hSüdosten1.8 km/hSüdosten1018.6 hPa0.0 mm0.0 mm/h
08.08.2022 - 05.15Uhr13.7 °C11.4 °C86 %0.0 W/m²0.4 km/hSüdosten1.8 km/hSüdosten1018.6 hPa0.0 mm0.0 mm/h
08.08.2022 - 05.20Uhr13.6 °C11.3 °C86 %0.0 W/m²0.0 km/hSüdosten0.0 km/hNorden1018.7 hPa0.0 mm0.0 mm/h
08.08.2022 - 05.25Uhr13.7 °C11.4 °C86 %0.0 W/m²1.6 km/hSüdosten4.0 km/hSüdosten1018.8 hPa0.0 mm0.0 mm/h
08.08.2022 - 05.30Uhr13.7 °C11.4 °C86 %0.0 W/m²1.3 km/hSüdosten4.0 km/hSüdosten1018.8 hPa0.0 mm0.0 mm/h
08.08.2022 - 05.35Uhr13.7 °C11.4 °C86 %0.0 W/m²0.0 km/hSüdosten0.0 km/hNorden1018.8 hPa0.0 mm0.0 mm/h
08.08.2022 - 05.40Uhr13.7 °C11.4 °C86 %0.0 W/m²0.0 km/hSüdosten0.0 km/hNorden1018.9 hPa0.0 mm0.0 mm/h
08.08.2022 - 05.45Uhr13.8 °C11.5 °C86 %0.0 W/m²0.0 km/hSüdosten0.0 km/hNorden1018.9 hPa0.0 mm0.0 mm/h
08.08.2022 - 05.50Uhr13.7 °C11.4 °C86 %0.0 W/m²0.8 km/hSüdosten1.8 km/hSüdosten1019.0 hPa0.0 mm0.0 mm/h
08.08.2022 - 05.55Uhr13.7 °C11.3 °C86 %0.0 W/m²1.2 km/hSüdosten4.0 km/hSüdosten1019.0 hPa0.0 mm0.0 mm/h
08.08.2022 - 06.00Uhr13.7 °C11.4 °C86 %0.0 W/m²1.4 km/hSüdosten4.0 km/hSüdosten1019.0 hPa0.0 mm0.0 mm/h
08.08.2022 - 06.05Uhr13.6 °C11.3 °C86 %0.0 W/m²2.1 km/hSüdosten4.0 km/hSüdosten1019.1 hPa0.0 mm0.0 mm/h
08.08.2022 - 06.10Uhr13.4 °C11.1 °C86 %0.0 W/m²1.4 km/hSüdosten4.0 km/hSüdosten1019.1 hPa0.0 mm0.0 mm/h
08.08.2022 - 06.15Uhr13.4 °C11.1 °C86 %5.0 W/m²0.8 km/hSüdosten1.8 km/hSüdosten1019.1 hPa0.0 mm0.0 mm/h
08.08.2022 - 06.20Uhr13.3 °C11.0 °C86 %7.0 W/m²1.0 km/hSüdosten4.0 km/hSüdosten1019.1 hPa0.0 mm0.0 mm/h
08.08.2022 - 06.25Uhr13.1 °C10.8 °C86 %9.0 W/m²1.6 km/hSüdosten4.0 km/hSüdosten1019.2 hPa0.0 mm0.0 mm/h
08.08.2022 - 06.30Uhr13.1 °C10.8 °C86 %11.0 W/m²1.1 km/hSüdosten4.0 km/hSüdosten1019.2 hPa0.0 mm0.0 mm/h
08.08.2022 - 06.35Uhr13.1 °C10.8 °C86 %12.0 W/m²1.8 km/hSüdosten4.0 km/hSüdosten1019.3 hPa0.0 mm0.0 mm/h
08.08.2022 - 06.40Uhr13.3 °C11.0 °C86 %14.0 W/m²0.8 km/hSüdosten4.0 km/hSüdosten1019.3 hPa0.0 mm0.0 mm/h
08.08.2022 - 06.45Uhr13.3 °C11.0 °C86 %16.0 W/m²2.9 km/hSüdosten8.3 km/hSüdosten1019.4 hPa0.0 mm0.0 mm/h
08.08.2022 - 06.50Uhr13.3 °C11.0 °C86 %18.0 W/m²0.5 km/hSüdosten1.8 km/hSüdosten1019.4 hPa0.0 mm0.0 mm/h
08.08.2022 - 06.55Uhr13.5 °C11.2 °C86 %18.0 W/m²1.0 km/hSüdosten4.0 km/hSüdosten1019.4 hPa0.0 mm0.0 mm/h
08.08.2022 - 07.00Uhr13.6 °C11.3 °C86 %19.0 W/m²0.8 km/hSüdosten1.8 km/hSüdosten1019.4 hPa0.0 mm0.0 mm/h
08.08.2022 - 07.05Uhr13.6 °C11.3 °C86 %21.0 W/m²0.0 km/hSüdosten0.0 km/hNorden1019.5 hPa0.0 mm0.0 mm/h
08.08.2022 - 07.10Uhr13.7 °C11.3 °C86 %23.0 W/m²0.0 km/hSüdosten0.0 km/hNorden1019.4 hPa0.0 mm0.0 mm/h
08.08.2022 - 07.15Uhr13.8 °C11.4 °C86 %23.0 W/m²0.1 km/hSüden1.8 km/hSüdosten1019.4 hPa0.0 mm0.0 mm/h
08.08.2022 - 07.20Uhr13.9 °C11.6 °C86 %23.0 W/m²0.0 km/hSüden0.0 km/hNorden1019.4 hPa0.0 mm0.0 mm/h
08.08.2022 - 07.25Uhr14.0 °C11.7 °C86 %25.0 W/m²0.0 km/hSüden0.0 km/hNorden1019.4 hPa0.0 mm0.0 mm/h
08.08.2022 - 07.30Uhr14.1 °C11.8 °C86 %28.0 W/m²0.0 km/hSüden0.0 km/hNorden1019.4 hPa0.0 mm0.0 mm/h
08.08.2022 - 07.35Uhr14.2 °C12.1 °C87 %32.0 W/m²0.0 km/hSüden0.0 km/hNorden1019.4 hPa0.0 mm0.0 mm/h
08.08.2022 - 07.40Uhr14.2 °C12.0 °C86 %153.0 W/m²0.0 km/hSüden0.0 km/hNorden1019.4 hPa0.0 mm0.0 mm/h
08.08.2022 - 07.45Uhr14.3 °C12.1 °C86 %163.0 W/m²0.0 km/hSüden0.0 km/hNorden1019.4 hPa0.0 mm0.0 mm/h
08.08.2022 - 07.50Uhr14.7 °C12.6 °C87 %176.0 W/m²0.0 km/hSüden0.0 km/hNorden1019.5 hPa0.0 mm0.0 mm/h
08.08.2022 - 07.55Uhr15.2 °C13.0 °C87 %185.0 W/m²0.0 km/hSüden0.0 km/hNorden1019.5 hPa0.0 mm0.0 mm/h
08.08.2022 - 08.00Uhr16.1 °C13.8 °C87 %193.0 W/m²0.0 km/hSüden0.0 km/hNorden1019.6 hPa0.0 mm0.0 mm/h
08.08.2022 - 08.05Uhr16.5 °C14.2 °C87 %200.0 W/m²0.0 km/hSüden0.0 km/hNorden1019.6 hPa0.0 mm0.0 mm/h
08.08.2022 - 08.10Uhr16.7 °C14.4 °C87 %211.0 W/m²0.0 km/hSüden0.0 km/hNorden1019.6 hPa0.0 mm0.0 mm/h
08.08.2022 - 08.15Uhr16.7 °C14.3 °C86 %225.0 W/m²0.8 km/hSüden4.0 km/hSüden1019.6 hPa0.0 mm0.0 mm/h
08.08.2022 - 08.20Uhr16.9 °C14.5 °C86 %248.0 W/m²0.0 km/hSüden0.0 km/hNorden1019.6 hPa0.0 mm0.0 mm/h
08.08.2022 - 08.25Uhr17.4 °C14.9 °C85 %264.0 W/m²0.0 km/hSüden0.0 km/hNorden1019.6 hPa0.0 mm0.0 mm/h
08.08.2022 - 08.30Uhr17.5 °C14.8 °C84 %283.0 W/m²0.0 km/hSüden0.0 km/hNorden1019.7 hPa0.0 mm0.0 mm/h
08.08.2022 - 08.35Uhr17.7 °C14.9 °C84 %294.0 W/m²0.4 km/hSüden1.8 km/hSüden1019.6 hPa0.0 mm0.0 mm/h
08.08.2022 - 08.40Uhr18.1 °C15.0 °C82 %304.0 W/m²1.1 km/hSüden4.0 km/hSüden1019.6 hPa0.0 mm0.0 mm/h
08.08.2022 - 08.45Uhr18.4 °C15.0 °C81 %309.0 W/m²0.7 km/hSüden1.8 km/hSüden1019.7 hPa0.0 mm0.0 mm/h
08.08.2022 - 08.50Uhr18.2 °C14.6 °C79 %316.0 W/m²1.9 km/hSüden8.3 km/hSüden1019.7 hPa0.0 mm0.0 mm/h
08.08.2022 - 08.55Uhr18.6 °C15.0 °C79 %320.0 W/m²1.9 km/hSüden4.0 km/hSüden1019.6 hPa0.0 mm0.0 mm/h
08.08.2022 - 09.00Uhr18.8 °C14.9 °C78 %329.0 W/m²1.5 km/hSüden8.3 km/hSüden1019.6 hPa0.0 mm0.0 mm/h
08.08.2022 - 09.05Uhr19.0 °C15.0 °C78 %338.0 W/m²2.1 km/hSüden8.3 km/hSüden1019.7 hPa0.0 mm0.0 mm/h
08.08.2022 - 09.10Uhr19.5 °C15.4 °C77 %350.0 W/m²1.3 km/hSüden4.0 km/hSüden1019.7 hPa0.0 mm0.0 mm/h
08.08.2022 - 09.15Uhr19.7 °C15.0 °C75 %364.0 W/m²1.9 km/hSüden8.3 km/hSüden1019.7 hPa0.0 mm0.0 mm/h
08.08.2022 - 09.20Uhr19.7 °C15.2 °C75 %385.0 W/m²1.9 km/hSüden4.0 km/hSüden1019.7 hPa0.0 mm0.0 mm/h
08.08.2022 - 09.25Uhr20.4 °C15.7 °C74 %397.0 W/m²0.7 km/hSüden1.8 km/hSüden1019.7 hPa0.0 mm0.0 mm/h
08.08.2022 - 09.30Uhr21.0 °C15.5 °C71 %418.0 W/m²2.8 km/hSüden16.2 km/hSüd-SO1019.7 hPa0.0 mm0.0 mm/h
08.08.2022 - 09.35Uhr21.7 °C15.1 °C66 %432.0 W/m²4.2 km/hOst-SO12.2 km/hOst-SO1019.7 hPa0.0 mm0.0 mm/h
08.08.2022 - 09.40Uhr21.9 °C14.7 °C63 %457.0 W/m²5.8 km/hNordosten14.0 km/hSüdosten1019.7 hPa0.0 mm0.0 mm/h
08.08.2022 - 09.45Uhr22.0 °C14.8 °C64 %476.0 W/m²3.7 km/hOst-NO8.3 km/hOst-NO1019.7 hPa0.0 mm0.0 mm/h
08.08.2022 - 09.50Uhr22.1 °C14.7 °C63 %503.0 W/m²7.8 km/hOst-SO18.0 km/hOsten1019.7 hPa0.0 mm0.0 mm/h
08.08.2022 - 09.55Uhr22.5 °C14.9 °C62 %517.0 W/m²2.5 km/hOst-NO5.8 km/hOst-NO1019.8 hPa0.0 mm0.0 mm/h
08.08.2022 - 10.00Uhr22.7 °C14.7 °C61 %534.0 W/m²6.8 km/hOst-SO16.2 km/hOsten1019.8 hPa0.0 mm0.0 mm/h
08.08.2022 - 10.05Uhr22.7 °C14.5 °C60 %541.0 W/m²6.9 km/hOsten12.2 km/hOsten1019.8 hPa0.0 mm0.0 mm/h
08.08.2022 - 10.10Uhr23.1 °C14.8 °C60 %557.0 W/m²4.1 km/hOsten12.2 km/hOsten1019.7 hPa0.0 mm0.0 mm/h
08.08.2022 - 10.15Uhr23.6 °C15.0 °C58 %568.0 W/m²3.9 km/hNordosten8.3 km/hNordosten1019.7 hPa0.0 mm0.0 mm/h
08.08.2022 - 10.20Uhr23.6 °C14.6 °C57 %582.0 W/m²11.1 km/hOst-SO16.2 km/hOst-SO1019.7 hPa0.0 mm0.0 mm/h
08.08.2022 - 10.25Uhr23.6 °C15.2 °C59 %592.0 W/m²3.7 km/hOst-SO8.3 km/hOst-SO1019.7 hPa0.0 mm0.0 mm/h
08.08.2022 - 10.30Uhr24.0 °C14.5 °C55 %605.0 W/m²7.3 km/hOst-SO18.0 km/hSüdosten1019.7 hPa0.0 mm0.0 mm/h
08.08.2022 - 10.35Uhr23.8 °C14.5 °C56 %615.0 W/m²11.2 km/hSüdosten16.2 km/hOst-SO1019.7 hPa0.0 mm0.0 mm/h
08.08.2022 - 10.40Uhr24.0 °C14.6 °C56 %626.0 W/m²12.7 km/hSüdosten24.5 km/hSüdosten1019.7 hPa0.0 mm0.0 mm/h
08.08.2022 - 10.45Uhr23.8 °C14.2 °C55 %638.0 W/m²14.3 km/hOst-SO36.0 km/hOst-SO1019.7 hPa0.0 mm0.0 mm/h
08.08.2022 - 10.50Uhr23.9 °C14.2 °C54 %650.0 W/m²8.6 km/hOst-SO20.2 km/hNordosten1019.7 hPa0.0 mm0.0 mm/h
08.08.2022 - 10.55Uhr24.4 °C14.4 °C54 %657.0 W/m²7.6 km/hOsten16.2 km/hOst-SO1019.7 hPa0.0 mm0.0 mm/h
08.08.2022 - 11.00Uhr24.4 °C14.5 °C54 %668.0 W/m²10.2 km/hOst-SO22.0 km/hOst-SO1019.7 hPa0.0 mm0.0 mm/h
08.08.2022 - 11.05Uhr24.3 °C14.2 °C54 %677.0 W/m²13.5 km/hOst-SO22.0 km/hOst-SO1019.8 hPa0.0 mm0.0 mm/h
08.08.2022 - 11.10Uhr24.4 °C14.4 °C54 %689.0 W/m²10.6 km/hOst-SO22.0 km/hOst-SO1019.8 hPa0.0 mm0.0 mm/h
08.08.2022 - 11.15Uhr24.4 °C14.2 °C53 %696.0 W/m²13.3 km/hOst-SO30.2 km/hOst-SO1019.7 hPa0.0 mm0.0 mm/h
08.08.2022 - 11.20Uhr24.7 °C14.3 °C52 %705.0 W/m²14.0 km/hOst-SO24.5 km/hSüdosten1019.7 hPa0.0 mm0.0 mm/h
08.08.2022 - 11.25Uhr24.4 °C13.8 °C52 %712.0 W/m²20.9 km/hOst-SO40.0 km/hSüdosten1019.7 hPa0.0 mm0.0 mm/h
08.08.2022 - 11.30Uhr24.4 °C14.0 °C52 %721.0 W/m²15.7 km/hOst-SO28.4 km/hOsten1019.7 hPa0.0 mm0.0 mm/h
08.08.2022 - 11.35Uhr24.7 °C13.9 °C51 %728.0 W/m²14.9 km/hOst-SO24.5 km/hOst-SO1019.7 hPa0.0 mm0.0 mm/h
08.08.2022 - 11.40Uhr24.8 °C13.8 °C50 %737.0 W/m²17.4 km/hOst-SO38.2 km/hOst-SO1019.7 hPa0.0 mm0.0 mm/h
08.08.2022 - 11.45Uhr24.8 °C13.7 °C50 %744.0 W/m²15.9 km/hOst-SO32.4 km/hOst-SO1019.7 hPa0.0 mm0.0 mm/h
08.08.2022 - 11.50Uhr25.1 °C14.1 °C50 %752.0 W/m²12.1 km/hOst-SO22.0 km/hSüdosten1019.7 hPa0.0 mm0.0 mm/h
08.08.2022 - 11.55Uhr25.4 °C13.6 °C48 %761.0 W/m²16.7 km/hOst-SO36.0 km/hOst-SO1019.7 hPa0.0 mm0.0 mm/h
08.08.2022 - 12.00Uhr25.2 °C13.6 °C49 %763.0 W/m²16.3 km/hOst-SO28.4 km/hOst-SO1019.7 hPa0.0 mm0.0 mm/h
08.08.2022 - 12.05Uhr25.5 °C14.0 °C49 %768.0 W/m²12.3 km/hSüdosten22.0 km/hOst-SO1019.6 hPa0.0 mm0.0 mm/h
08.08.2022 - 12.10Uhr25.6 °C13.8 °C48 %777.0 W/m²16.9 km/hOst-SO28.4 km/hOst-SO1019.6 hPa0.0 mm0.0 mm/h
08.08.2022 - 12.15Uhr25.5 °C13.9 °C49 %780.0 W/m²11.6 km/hOsten28.4 km/hOst-SO1019.6 hPa0.0 mm0.0 mm/h
08.08.2022 - 12.20Uhr26.0 °C14.9 °C50 %784.0 W/m²6.1 km/hOst-SO18.0 km/hOst-SO1019.6 hPa0.0 mm0.0 mm/h
08.08.2022 - 12.25Uhr26.5 °C14.3 °C47 %789.0 W/m²7.6 km/hOst-NO22.0 km/hOsten1019.6 hPa0.0 mm0.0 mm/h
08.08.2022 - 12.30Uhr26.3 °C14.4 °C48 %796.0 W/m²5.7 km/hOst-SO16.2 km/hOst-SO1019.6 hPa0.0 mm0.0 mm/h
08.08.2022 - 12.35Uhr26.9 °C15.0 °C48 %798.0 W/m²6.6 km/hNordosten18.0 km/hOst-SO1019.6 hPa0.0 mm0.0 mm/h
08.08.2022 - 12.40Uhr27.0 °C14.4 °C46 %800.0 W/m²11.5 km/hNord-NW28.4 km/hNorden1019.5 hPa0.0 mm0.0 mm/h
08.08.2022 - 12.45Uhr26.8 °C14.7 °C48 %802.0 W/m²6.6 km/hNordosten18.0 km/hNorden1019.5 hPa0.0 mm0.0 mm/h
08.08.2022 - 12.50Uhr26.8 °C14.3 °C46 %809.0 W/m²8.5 km/hNorden24.5 km/hNord-NO1019.5 hPa0.0 mm0.0 mm/h
08.08.2022 - 12.55Uhr26.7 °C14.4 °C47 %809.0 W/m²8.6 km/hNordosten22.0 km/hOst-SO1019.5 hPa0.0 mm0.0 mm/h
08.08.2022 - 13.00Uhr27.0 °C14.8 °C47 %817.0 W/m²6.9 km/hOst-SO14.0 km/hOst-SO1019.4 hPa0.0 mm0.0 mm/h
08.08.2022 - 13.05Uhr26.9 °C14.1 °C45 %816.0 W/m²9.1 km/hOsten24.5 km/hSüdosten1019.5 hPa0.0 mm0.0 mm/h
08.08.2022 - 13.10Uhr26.6 °C14.1 °C46 %817.0 W/m²8.6 km/hOsten24.5 km/hNorden1019.5 hPa0.0 mm0.0 mm/h
08.08.2022 - 13.15Uhr26.6 °C14.2 °C46 %817.0 W/m²8.4 km/hNord-NO20.2 km/hNordosten1019.3 hPa0.0 mm0.0 mm/h
08.08.2022 - 13.20Uhr26.7 °C14.4 °C47 %823.0 W/m²6.0 km/hNord-NW16.2 km/hNorden1019.3 hPa0.0 mm0.0 mm/h
08.08.2022 - 13.25Uhr26.9 °C14.4 °C46 %821.0 W/m²9.4 km/hNord-NO26.3 km/hSüdosten1019.3 hPa0.0 mm0.0 mm/h
08.08.2022 - 13.30Uhr26.8 °C14.3 °C46 %823.0 W/m²9.1 km/hNorden22.0 km/hNorden1019.3 hPa0.0 mm0.0 mm/h
08.08.2022 - 13.35Uhr27.3 °C14.6 °C46 %828.0 W/m²7.0 km/hNord-NO18.0 km/hNord-NO1019.2 hPa0.0 mm0.0 mm/h
08.08.2022 - 13.40Uhr27.3 °C14.1 °C44 %826.0 W/m²10.8 km/hNord-NO22.0 km/hNordosten1019.3 hPa0.0 mm0.0 mm/h
08.08.2022 - 13.45Uhr27.2 °C14.0 °C44 %844.0 W/m²9.2 km/hOsten16.2 km/hNorden1019.3 hPa0.0 mm0.0 mm/h
08.08.2022 - 13.50Uhr27.2 °C14.5 °C46 %823.0 W/m²9.5 km/hNorden18.0 km/hNorden1019.2 hPa0.0 mm0.0 mm/h
08.08.2022 - 13.55Uhr27.3 °C14.5 °C46 %828.0 W/m²9.6 km/hNord-NW18.0 km/hNorden1019.2 hPa0.0 mm0.0 mm/h
08.08.2022 - 14.00Uhr27.4 °C14.5 °C45 %828.0 W/m²4.8 km/hNord-NO10.1 km/hNord-NO1019.1 hPa0.0 mm0.0 mm/h
08.08.2022 - 14.05Uhr27.7 °C14.4 °C44 %824.0 W/m²8.4 km/hNorden16.2 km/hOsten1019.1 hPa0.0 mm0.0 mm/h
08.08.2022 - 14.10Uhr27.6 °C14.2 °C44 %823.0 W/m²10.1 km/hNord-NO26.3 km/hOst-SO1019.0 hPa0.0 mm0.0 mm/h
08.08.2022 - 14.15Uhr27.8 °C14.4 °C44 %819.0 W/m²8.0 km/hNord-NW18.0 km/hNord-NO1019.0 hPa0.0 mm0.0 mm/h
08.08.2022 - 14.20Uhr27.8 °C14.0 °C43 %812.0 W/m²8.9 km/hNord-NO28.4 km/hOsten1018.9 hPa0.0 mm0.0 mm/h
08.08.2022 - 14.25Uhr27.7 °C13.6 °C42 %809.0 W/m²10.8 km/hNord-NO22.0 km/hNordosten1018.9 hPa0.0 mm0.0 mm/h
08.08.2022 - 14.30Uhr27.9 °C13.7 °C42 %823.0 W/m²9.6 km/hNordosten22.0 km/hOsten1018.9 hPa0.0 mm0.0 mm/h
08.08.2022 - 14.35Uhr27.8 °C13.4 °C41 %800.0 W/m²10.5 km/hNord-NW22.0 km/hNorden1018.9 hPa0.0 mm0.0 mm/h
08.08.2022 - 14.40Uhr27.9 °C13.8 °C42 %796.0 W/m²14.6 km/hNorden24.5 km/hNord-NO1018.9 hPa0.0 mm0.0 mm/h
08.08.2022 - 14.45Uhr28.0 °C13.8 °C42 %789.0 W/m²12.5 km/hNord-NW22.0 km/hOst-NO1018.9 hPa0.0 mm0.0 mm/h
08.08.2022 - 14.50Uhr28.2 °C14.1 °C42 %782.0 W/m²7.3 km/hNorden12.2 km/hNorden1018.9 hPa0.0 mm0.0 mm/h
08.08.2022 - 14.55Uhr28.6 °C14.3 °C42 %779.0 W/m²7.0 km/hOst-NO24.5 km/hOst-NO1018.9 hPa0.0 mm0.0 mm/h
08.08.2022 - 15.00Uhr28.4 °C13.3 °C40 %775.0 W/m²11.6 km/hNord-NO26.3 km/hNordosten1018.9 hPa0.0 mm0.0 mm/h
08.08.2022 - 15.05Uhr28.1 °C13.6 °C41 %765.0 W/m²9.6 km/hNordosten18.0 km/hOst-NO1018.8 hPa0.0 mm0.0 mm/h
08.08.2022 - 15.10Uhr28.5 °C14.0 °C41 %765.0 W/m²12.0 km/hNorden24.5 km/hNord-NW1018.8 hPa0.0 mm0.0 mm/h
08.08.2022 - 15.15Uhr28.8 °C13.8 °C40 %758.0 W/m²7.7 km/hNordosten22.0 km/hNord-NW1018.8 hPa0.0 mm0.0 mm/h
08.08.2022 - 15.20Uhr28.7 °C13.0 °C38 %749.0 W/m²8.8 km/hNordosten22.0 km/hNord-NO1018.8 hPa0.0 mm0.0 mm/h
08.08.2022 - 15.25Uhr28.7 °C13.3 °C39 %747.0 W/m²5.6 km/hOsten22.0 km/hNord-NW1018.8 hPa0.0 mm0.0 mm/h
08.08.2022 - 15.30Uhr29.0 °C13.8 °C39 %740.0 W/m²8.3 km/hNorden26.3 km/hNord-NW1018.7 hPa0.0 mm0.0 mm/h
08.08.2022 - 15.35Uhr28.6 °C13.2 °C39 %733.0 W/m²10.7 km/hOsten26.3 km/hOst-SO1018.6 hPa0.0 mm0.0 mm/h
08.08.2022 - 15.40Uhr28.5 °C13.1 °C39 %724.0 W/m²9.5 km/hNorden22.0 km/hNordosten1018.6 hPa0.0 mm0.0 mm/h
08.08.2022 - 15.45Uhr28.8 °C13.3 °C39 %717.0 W/m²11.0 km/hNord-NW20.2 km/hNorden1018.6 hPa0.0 mm0.0 mm/h
08.08.2022 - 15.50Uhr29.1 °C13.2 °C38 %708.0 W/m²6.7 km/hNordosten16.2 km/hNorden1018.6 hPa0.0 mm0.0 mm/h
08.08.2022 - 15.55Uhr28.8 °C13.2 °C38 %708.0 W/m²7.6 km/hNordosten24.5 km/hNord-NO1018.6 hPa0.0 mm0.0 mm/h
08.08.2022 - 16.00Uhr28.9 °C12.9 °C37 %696.0 W/m²6.7 km/hNordosten18.0 km/hOsten1018.6 hPa0.0 mm0.0 mm/h
08.08.2022 - 16.05Uhr29.0 °C12.9 °C37 %691.0 W/m²5.7 km/hNord-NW18.0 km/hNord-NO1018.5 hPa0.0 mm0.0 mm/h
08.08.2022 - 16.10Uhr29.1 °C13.0 °C37 %677.0 W/m²10.4 km/hNordosten16.2 km/hNordosten1018.5 hPa0.0 mm0.0 mm/h
08.08.2022 - 16.15Uhr29.1 °C13.4 °C38 %666.0 W/m²5.9 km/hOst-NO12.2 km/hOst-NO1018.5 hPa0.0 mm0.0 mm/h
08.08.2022 - 16.20Uhr29.2 °C13.9 °C39 %657.0 W/m²7.9 km/hNorden12.2 km/hNorden1018.4 hPa0.0 mm0.0 mm/h
08.08.2022 - 16.25Uhr29.5 °C13.4 °C37 %640.0 W/m²7.9 km/hNord-NO18.0 km/hNord-NO1018.4 hPa0.0 mm0.0 mm/h
08.08.2022 - 16.30Uhr29.1 °C12.7 °C36 %626.0 W/m²6.3 km/hOst-SO10.1 km/hOsten1018.5 hPa0.0 mm0.0 mm/h
08.08.2022 - 16.35Uhr28.8 °C13.2 °C38 %626.0 W/m²7.3 km/hNordosten18.0 km/hNord-NO1018.5 hPa0.0 mm0.0 mm/h
08.08.2022 - 16.40Uhr29.2 °C13.5 °C38 %610.0 W/m²4.8 km/hNorden12.2 km/hOst-SO1018.4 hPa0.0 mm0.0 mm/h
08.08.2022 - 16.45Uhr28.9 °C13.4 °C39 %599.0 W/m²5.6 km/hOsten16.2 km/hOsten1018.4 hPa0.0 mm0.0 mm/h
08.08.2022 - 16.50Uhr29.2 °C13.5 °C38 %591.0 W/m²6.0 km/hNord-NO16.2 km/hOsten1018.3 hPa0.0 mm0.0 mm/h
08.08.2022 - 16.55Uhr29.0 °C13.3 °C38 %578.0 W/m²12.7 km/hOst-SO28.4 km/hOst-SO1018.3 hPa0.0 mm0.0 mm/h
08.08.2022 - 17.00Uhr28.9 °C13.6 °C39 %561.0 W/m²4.7 km/hNord-NO12.2 km/hNordosten1018.3 hPa0.0 mm0.0 mm/h
08.08.2022 - 17.05Uhr29.3 °C13.2 °C37 %552.0 W/m²6.5 km/hSüdosten14.0 km/hSüd-SO1018.3 hPa0.0 mm0.0 mm/h
08.08.2022 - 17.10Uhr28.9 °C12.9 °C37 %545.0 W/m²6.1 km/hNordosten16.2 km/hSüdosten1018.3 hPa0.0 mm0.0 mm/h
08.08.2022 - 17.15Uhr28.7 °C13.1 °C38 %531.0 W/m²9.4 km/hOst-SO20.2 km/hSüdosten1018.3 hPa0.0 mm0.0 mm/h
08.08.2022 - 17.20Uhr28.6 °C13.4 °C39 %448.0 W/m²8.3 km/hOsten22.0 km/hSüd-SO1018.3 hPa0.0 mm0.0 mm/h
08.08.2022 - 17.25Uhr28.7 °C12.8 °C37 %464.0 W/m²7.3 km/hOsten18.0 km/hNorden1018.3 hPa0.0 mm0.0 mm/h
08.08.2022 - 17.30Uhr28.4 °C12.8 °C38 %478.0 W/m²11.6 km/hOst-NO28.4 km/hOst-SO1018.2 hPa0.0 mm0.0 mm/h
08.08.2022 - 17.35Uhr28.2 °C12.8 °C39 %459.0 W/m²13.3 km/hOst-SO22.0 km/hOst-SO1018.3 hPa0.0 mm0.0 mm/h
08.08.2022 - 17.40Uhr28.0 °C12.7 °C39 %459.0 W/m²9.6 km/hOsten16.2 km/hOst-SO1018.2 hPa0.0 mm0.0 mm/h
08.08.2022 - 17.45Uhr28.0 °C12.9 °C39 %455.0 W/m²7.5 km/hSüdosten16.2 km/hOst-SO1018.2 hPa0.0 mm0.0 mm/h
08.08.2022 - 17.50Uhr28.1 °C13.4 °C40 %443.0 W/m²12.4 km/hOst-SO22.0 km/hOst-SO1018.2 hPa0.0 mm0.0 mm/h
08.08.2022 - 17.55Uhr28.0 °C13.2 °C40 %427.0 W/m²12.1 km/hOst-SO26.3 km/hSüdosten1018.1 hPa0.0 mm0.0 mm/h
08.08.2022 - 18.00Uhr28.1 °C13.0 °C40 %408.0 W/m²12.6 km/hOst-SO22.0 km/hSüdosten1018.1 hPa0.0 mm0.0 mm/h
08.08.2022 - 18.05Uhr28.1 °C13.1 °C40 %392.0 W/m²10.0 km/hOst-SO28.4 km/hSüdosten1018.2 hPa0.0 mm0.0 mm/h
08.08.2022 - 18.10Uhr28.0 °C13.0 °C40 %371.0 W/m²11.5 km/hOst-SO22.0 km/hOst-SO1018.2 hPa0.0 mm0.0 mm/h
08.08.2022 - 18.15Uhr27.8 °C12.3 °C38 %357.0 W/m²15.7 km/hOst-SO28.4 km/hSüdosten1018.2 hPa0.0 mm0.0 mm/h
08.08.2022 - 18.20Uhr27.7 °C12.6 °C39 %346.0 W/m²11.3 km/hOst-SO18.0 km/hOst-SO1018.1 hPa0.0 mm0.0 mm/h
08.08.2022 - 18.25Uhr27.7 °C12.2 °C38 %332.0 W/m²13.8 km/hOst-SO24.5 km/hOst-SO1018.2 hPa0.0 mm0.0 mm/h
08.08.2022 - 18.30Uhr27.6 °C12.4 °C39 %318.0 W/m²13.4 km/hOst-SO26.3 km/hOst-SO1018.2 hPa0.0 mm0.0 mm/h
08.08.2022 - 18.35Uhr27.6 °C13.0 °C40 %306.0 W/m²12.4 km/hOst-SO24.5 km/hOst-SO1018.2 hPa0.0 mm0.0 mm/h
08.08.2022 - 18.40Uhr27.6 °C12.4 °C39 %15.9 km/hOst-SO22.0 km/hOsten1018.2 hPa